Time;durP1;ratioP1;P1;durP2;ratioP2;P2;SDS_P1;SDS_P2;PMS_P1;PMS_P2;Temp;Humidity;BMP_temperature;BMP_pressure;BME280_temperature;BME280_humidity;BME280_pressure;Samples;Min_cycle;Max_cycle;Signal;HPM_P1;HPM_P2
2023/05/06 00:02:11;;;;;;;16.23;10.20;;;;;;;;;;5017613;28;20393;-95
2023/05/06 00:04:55;;;;;;;16.52;9.70;;;;;;;;;;5007997;28;20117;-96
2023/05/06 00:07:40;;;;;;;16.02;9.52;;;;;;;;;;5015947;28;20115;-92
2023/05/06 00:10:25;;;;;;;16.63;9.32;;;;;;;;;;5015699;28;20088;-94
2023/05/06 00:13:09;;;;;;;15.02;9.80;;;;;;;;;;5024798;28;20040;-94
2023/05/06 00:15:54;;;;;;;15.02;9.52;;;;;;;;;;5030220;28;20410;-94
2023/05/06 00:18:40;;;;;;;18.08;9.15;;;;;;;;;;5014723;28;20048;-95
2023/05/06 00:21:26;;;;;;;14.15;9.10;;;;;;;;;;5022783;28;20486;-95
2023/05/06 00:24:11;;;;;;;15.60;8.73;;;;;;;;;;5048515;28;20117;-93
2023/05/06 00:26:57;;;;;;;16.15;9.68;;;;;;;;;;5025930;28;20108;-94
2023/05/06 00:29:42;;;;;;;13.43;9.38;;;;;;;;;;5029087;28;20070;-94
2023/05/06 00:32:26;;;;;;;15.48;9.38;;;;;;;;;;5015358;28;20041;-94
2023/05/06 00:35:11;;;;;;;20.25;10.15;;;;;;;;;;5014904;28;20112;-95
2023/05/06 00:38:16;;;;;;;17.92;9.50;;;;;;;;;;5014780;28;20094;-95
2023/05/06 00:41:02;;;;;;;15.43;9.18;;;;;;;;;;5020049;28;20110;-94
2023/05/06 00:43:46;;;;;;;16.75;10.05;;;;;;;;;;5014902;28;20033;-92
2023/05/06 00:46:33;;;;;;;17.90;10.40;;;;;;;;;;5001174;28;20113;-95
2023/05/06 00:49:21;;;;;;;15.15;10.32;;;;;;;;;;5025396;28;20045;-95
2023/05/06 00:52:06;;;;;;;19.30;11.55;;;;;;;;;;5014707;28;20045;-95
2023/05/06 00:55:00;;;;;;;18.38;11.05;;;;;;;;;;5013586;28;20041;-95
2023/05/06 00:57:48;;;;;;;20.63;10.48;;;;;;;;;;5014153;28;20072;-94
2023/05/06 01:00:33;;;;;;;15.05;9.32;;;;;;;;;;5025507;28;20036;-94
2023/05/06 01:03:27;;;;;;;18.38;10.50;;;;;;;;;;5014391;28;20037;-94
2023/05/06 01:06:15;;;;;;;15.43;9.75;;;;;;;;;;5026207;28;20088;-94
2023/05/06 01:08:59;;;;;;;17.75;11.40;;;;;;;;;;5013039;28;20173;-93
2023/05/06 01:11:53;;;;;;;19.20;10.98;;;;;;;;;;5026249;28;20037;-93
2023/05/06 01:15:01;;;;;;;18.17;11.60;;;;;;;;;;5016976;28;20406;-93
2023/05/06 01:17:45;;;;;;;22.23;11.05;;;;;;;;;;5014074;28;20040;-94
2023/05/06 01:20:30;;;;;;;21.10;11.23;;;;;;;;;;5028173;28;20084;-95
2023/05/06 01:23:15;;;;;;;18.10;11.35;;;;;;;;;;5014017;28;20207;-95
2023/05/06 01:26:00;;;;;;;24.73;11.88;;;;;;;;;;5012743;28;20029;-95
2023/05/06 01:28:44;;;;;;;19.05;10.95;;;;;;;;;;5015943;28;20049;-96
2023/05/06 01:31:37;;;;;;;18.17;11.13;;;;;;;;;;5013251;28;20407;-95
2023/05/06 01:34:38;;;;;;;22.90;12.63;;;;;;;;;;5027169;28;20037;-94
2023/05/06 01:37:30;;;;;;;23.42;12.52;;;;;;;;;;5033286;28;20091;-95
2023/05/06 01:40:15;;;;;;;21.30;12.73;;;;;;;;;;5013730;28;20532;-93
2023/05/06 01:43:01;;;;;;;21.33;11.75;;;;;;;;;;5007179;28;20157;-94
2023/05/06 01:45:52;;;;;;;19.85;12.57;;;11.40;99.90;;;;;;5013030;28;20045;-95
2023/05/06 01:48:37;;;;;;;22.05;13.63;;;;;;;;;;5013103;28;20053;-96
2023/05/06 01:51:22;;;;;;;22.45;12.95;;;;;;;;;;5005613;28;20095;-95
2023/05/06 01:54:06;;;;;;;21.15;12.02;;;;;;;;;;5014131;28;20453;-95
2023/05/06 01:56:53;;;;;;;21.38;12.00;;;;;;;;;;5014062;28;20053;-94
2023/05/06 01:59:38;;;;;;;24.23;12.50;;;;;;;;;;5014245;28;20108;-94
2023/05/06 02:02:23;;;;;;;24.98;12.95;;;;;;;;;;5011294;28;20080;-95
2023/05/06 02:05:10;;;;;;;23.70;13.45;;;;;;;;;;5013310;28;20111;-95
2023/05/06 02:07:55;;;;;;;27.48;12.43;;;;;;;;;;5026744;28;20184;-95
2023/05/06 02:10:40;;;;;;;21.63;12.48;;;;;;;;;;5015649;28;20033;-94
2023/05/06 02:13:24;;;;;;;23.45;12.27;;;;;;;;;;5022019;28;20064;-95
2023/05/06 02:16:09;;;;;;;26.42;12.20;;;;;;;;;;5011825;28;20044;-94
2023/05/06 02:18:54;;;;;;;21.40;11.90;;;;;;;;;;5012701;28;20036;-95
2023/05/06 02:21:39;;;;;;;18.17;11.25;;;;;;;;;;5020765;28;20398;-95
2023/05/06 02:24:25;;;;;;;22.42;13.45;;;;;;;;;;5029139;28;20040;-94
2023/05/06 02:27:09;;;;;;;22.55;14.27;;;;;;;;;;5012021;28;20103;-93
2023/05/06 02:29:54;;;;;;;22.52;13.60;;;;;;;;;;5018634;28;20504;-94
2023/05/06 02:32:38;;;;;;;20.10;12.57;;;;;;;;;;5017286;28;20095;-95
2023/05/06 02:35:23;;;;;;;21.95;13.68;;;;;;;;;;5007366;28;20049;-94
2023/05/06 02:38:08;;;;;;;27.73;13.00;;;;;;;;;;5027921;28;20088;-92
2023/05/06 02:40:53;;;;;;;25.83;14.05;;;;;;;;;;5012065;28;20044;-94
2023/05/06 02:43:38;;;;;;;25.92;13.88;;;;;;;;;;5012516;28;20057;-91
2023/05/06 02:46:23;;;;;;;27.40;13.45;;;;;;;;;;5013987;28;20088;-88
2023/05/06 02:49:08;;;;;;;26.45;13.38;;;;;;;;;;4999256;28;20052;-88
2023/05/06 02:51:52;;;;;;;22.30;12.48;;;;;;;;;;5013241;28;20084;-89
2023/05/06 02:54:36;;;;;;;23.55;12.93;;;;;;;;;;5012662;28;20137;-90
2023/05/06 02:57:21;;;;;;;23.60;13.23;;;;;;;;;;4998912;28;20096;-89
2023/05/06 03:00:06;;;;;;;20.70;12.60;;;;;;;;;;5012816;28;20072;-89
2023/05/06 03:02:51;;;;;;;24.85;12.10;;;;;;;;;;5013187;28;20521;-89
2023/05/06 03:05:35;;;;;;;23.70;13.05;;;;;;;;;;5013600;28;20513;-90
2023/05/06 03:08:20;;;;;;;25.02;13.10;;;;;;;;;;5012405;28;20398;-90
2023/05/06 03:11:04;;;;;;;22.67;12.32;;;;;;;;;;5012577;28;20045;-90
2023/05/06 03:13:50;;;;;;;20.90;11.90;;;;;;;;;;5012715;28;20092;-89
2023/05/06 03:16:37;;;;;;;20.98;11.40;;;;;;;;;;4999422;28;20080;-89
2023/05/06 03:23:15;;;;;;;21.00;10.43;;;;;;;;;;5013901;28;20056;-88
2023/05/06 03:26:00;;;;;;;19.73;11.50;;;;;;;;;;4999127;28;20120;-88
2023/05/06 03:28:45;;;;;;;20.13;11.68;;;;;;;;;;4999299;28;20117;-88
2023/05/06 03:42:05;;;;;;;22.90;11.25;;;;;;;;;;5013694;28;20431;-89
2023/05/06 03:48:32;;;;;;;19.38;10.60;;;;;;;;;;5013417;28;20486;-88
2023/05/06 04:01:55;;;;;;;21.63;12.02;;;;;;;;;;5013496;28;20120;-88
2023/05/06 04:12:26;;;;;;;21.65;11.02;;;9.80;99.90;;;;;;5013656;28;20096;-88
2023/05/06 04:25:58;;;;;;;25.08;12.50;;;;;;;;;;5016277;28;20038;-89
2023/05/06 04:36:12;;;;;;;26.30;12.48;;;;;;;;;;5016825;28;20430;-90
2023/05/06 04:42:42;;;;;;;22.55;12.27;;;;;;;;;;5016206;28;20029;-88
2023/05/06 04:48:50;;;;;;;21.75;12.18;;;;;;;;;;5015816;28;20056;-87
2023/05/06 04:55:16;;;;;;;26.25;12.85;;;;;;;;;;5016062;28;20049;-89
2023/05/06 04:58:01;;;;;;;24.20;12.90;;;;;;;;;;4987146;28;20398;-88
2023/05/06 05:00:45;;;;;;;27.20;13.43;;;;;;;;;;4987376;28;20108;-87
2023/05/06 05:03:30;;;;;;;26.83;15.45;;;;;;;;;;5000614;28;20081;-89
2023/05/06 05:06:15;;;;;;;31.02;16.45;;;;;;;;;;5000444;28;20120;-94
2023/05/06 05:08:59;;;;;;;32.40;14.80;;;;;;;;;;5000320;28;20065;-93
2023/05/06 05:11:44;;;;;;;31.83;16.55;;;;;;;;;;4986529;28;20127;-90
2023/05/06 05:14:31;;;;;;;31.48;17.77;;;;;;;;;;4999950;28;20036;-90
2023/05/06 05:17:20;;;;;;;27.73;14.85;;;;;;;;;;4986614;28;20048;-88
2023/05/06 05:20:13;;;;;;;28.88;14.73;;;;;;;;;;5000032;28;20093;-89
2023/05/06 05:23:02;;;;;;;28.75;15.57;;;;;;;;;;5254632;22;20071;-92
2023/05/06 05:25:52;;;;;;;28.45;15.38;;;;;;;;;;5018395;28;20508;-91
2023/05/06 05:28:37;;;;;;;27.88;15.10;;;;;;;;;;5006698;28;20091;-91
2023/05/06 05:31:21;;;;;;;28.63;15.32;;;;;;;;;;5020658;28;20044;-89
2023/05/06 05:34:06;;;;;;;30.85;16.20;;;;;;;;;;5020004;28;20441;-90
2023/05/06 05:36:51;;;;;;;26.40;14.40;;;;;;;;;;5006610;28;20088;-92
2023/05/06 05:39:36;;;;;;;23.63;14.52;;;;;;;;;;5017847;28;20032;-92
2023/05/06 05:42:20;;;;;;;29.38;14.63;;;;;;;;;;5011247;28;20045;-89
2023/05/06 05:45:05;;;;;;;29.55;15.73;;;;;;;;;;5028528;28;20525;-93
2023/05/06 05:47:49;;;;;;;32.35;16.35;;;;;;;;;;4999707;28;20049;-88
2023/05/06 05:50:34;;;;;;;30.60;16.70;;;;;;;;;;5018092;28;20040;-88
2023/05/06 05:53:18;;;;;;;29.63;16.27;;;;;;;;;;5010446;28;20048;-88
2023/05/06 05:56:03;;;;;;;31.45;17.48;;;;;;;;;;5002138;28;20048;-90
2023/05/06 05:58:48;;;;;;;31.10;16.17;;;;;;;;;;5006508;28;20478;-89
2023/05/06 06:01:35;;;;;;;26.85;15.93;;;;;;;;;;5004589;28;20040;-92
2023/05/06 06:04:20;;;;;;;29.98;17.70;;;;;;;;;;5018272;28;20538;-88
2023/05/06 06:07:05;;;;;;;39.42;18.92;;;;;;;;;;5008688;28;20048;-89
2023/05/06 06:09:49;;;;;;;33.38;18.20;;;;;;;;;;5029055;28;20061;-87
2023/05/06 06:12:34;;;;;;;32.55;18.00;;;;;;;;;;5020200;28;20540;-91
2023/05/06 06:15:19;;;;;;;33.20;18.98;;;;;;;;;;5005520;28;20041;-88
2023/05/06 06:18:04;;;;;;;32.90;18.30;;;;;;;;;;5024819;28;20068;-90
2023/05/06 06:20:48;;;;;;;32.10;18.15;;;;;;;;;;5017647;28;20057;-88
2023/05/06 06:23:35;;;;;;;31.25;17.65;;;;;;;;;;5024263;28;20144;-88
2023/05/06 06:26:20;;;;;;;29.23;18.17;;;;;;;;;;4979120;28;20118;-89
2023/05/06 06:29:08;;;;;;;30.25;17.38;;;;;;;;;;4990500;28;20144;-90
2023/05/06 06:31:57;;;;;;;29.73;17.63;;;;;;;;;;4991262;28;20112;-89
2023/05/06 06:34:42;;;;;;;28.50;17.20;;;;;;;;;;4997458;28;20029;-89
2023/05/06 06:37:29;;;;;;;30.55;17.17;;;;;;;;;;5015811;28;20057;-89
2023/05/06 06:40:14;;;;;;;30.48;17.70;;;;;;;;;;4993697;28;20040;-89
2023/05/06 06:42:59;;;;;;;27.88;17.27;;;;;;;;;;5014202;28;20145;-89
2023/05/06 06:45:50;;;;;;;27.00;17.35;;;;;;;;;;4976868;28;20041;-89
2023/05/06 06:48:35;;;;;;;28.20;17.55;;;;;;;;;;5012570;28;20085;-91
2023/05/06 06:51:20;;;;;;;26.83;17.25;;;;;;;;;;4983643;28;20092;-89
2023/05/06 06:54:04;;;;;;;32.90;16.52;;;;;;;;;;4984512;28;20109;-89
2023/05/06 06:56:49;;;;;;;27.42;16.65;;;;;;;;;;4988900;28;20084;-89
2023/05/06 06:59:36;;;;;;;28.17;16.80;;;;;;;;;;4992335;28;20530;-89
2023/05/06 07:02:23;;;;;;;27.05;15.73;;;;;;;;;;4991279;28;20534;-90
2023/05/06 07:05:08;;;;;;;24.60;15.77;;;;;;;;;;4990010;28;20133;-90
2023/05/06 07:07:54;;;;;;;22.08;13.63;;;;;;;;;;4974848;28;20181;-90
2023/05/06 07:10:41;;;;;;;23.67;14.25;;;;;;;;;;4993128;28;20056;-90
2023/05/06 07:13:33;;;;;;;21.40;13.05;;;;;;;;;;4973967;28;20126;-89
2023/05/06 07:16:20;;;;;;;15.57;11.52;;;;;;;;;;4994953;28;20036;-90
2023/05/06 07:19:05;;;;;;;18.80;12.27;;;;;;;;;;5004805;28;20530;-90
2023/05/06 07:21:57;;;;;;;20.25;13.45;;;;;;;;;;4996463;28;20486;-90
2023/05/06 07:24:42;;;;;;;18.20;12.68;;;;;;;;;;4985535;28;20068;-90
2023/05/06 07:27:29;;;;;;;19.15;12.77;;;;;;;;;;4998670;28;20048;-91
2023/05/06 07:30:13;;;;;;;21.98;12.77;;;;;;;;;;5013412;28;20048;-91
2023/05/06 07:32:58;;;;;;;16.13;11.80;;;;;;;;;;4999226;28;20084;-90
2023/05/06 07:35:48;;;;;;;15.82;11.02;;;;;;;;;;4997035;28;20044;-90
2023/05/06 07:38:36;;;;;;;15.88;11.00;;;;;;;;;;5001894;28;20060;-88
2023/05/06 07:41:26;;;;;;;13.13;9.40;;;;;;;;;;5004615;28;20505;-88
2023/05/06 07:44:11;;;;;;;12.40;9.45;;;;;;;;;;4992314;28;20099;-89
2023/05/06 07:46:56;;;;;;;15.45;10.13;;;;;;;;;;5000722;28;20044;-90
2023/05/06 07:49:48;;;;;;;13.35;9.27;;;;;;;;;;5004276;28;20048;-89
2023/05/06 07:52:36;;;;;;;11.18;8.48;;;;;;;;;;5016489;28;20115;-90
2023/05/06 07:55:23;;;;;;;12.55;9.38;;;;;;;;;;5035065;28;20118;-88
2023/05/06 07:58:10;;;;;;;12.23;8.82;;;;;;;;;;5012056;28;20068;-89
2023/05/06 08:00:55;;;;;;;11.60;7.75;;;;;;;;;;5018685;28;20037;-87
2023/05/06 08:03:39;;;;;;;9.75;7.60;;;;;;;;;;5018055;28;20044;-88
2023/05/06 08:06:24;;;;;;;11.25;8.05;;;;;;;;;;5015510;28;20080;-88
2023/05/06 08:09:09;;;;;;;12.23;7.55;;;;;;;;;;5012446;28;20823;-89
2023/05/06 08:11:53;;;;;;;9.75;5.72;;;;;;;;;;5014225;28;20492;-91
2023/05/06 08:14:40;;;;;;;9.85;5.40;;;;;;;;;;5017476;28;20386;-91
2023/05/06 08:17:25;;;;;;;7.85;4.90;;;;;;;;;;5005771;28;20091;-89
2023/05/06 08:20:13;;;;;;;9.43;5.68;;;;;;;;;;5000417;28;20471;-91
2023/05/06 08:23:01;;;;;;;8.82;5.63;;;;;;;;;;5018338;28;20076;-89
2023/05/06 08:25:50;;;;;;;6.60;4.60;;;;;;;;;;5005889;28;20504;-89
2023/05/06 08:28:38;;;;;;;10.45;5.82;;;;;;;;;;4991943;28;20103;-90
2023/05/06 08:31:22;;;;;;;5.90;4.43;;;;;;;;;;5013688;28;20099;-91
2023/05/06 08:34:09;;;;;;;8.85;5.72;;;;;;;;;;4992892;28;20037;-89
2023/05/06 08:36:55;;;;;;;9.98;6.85;;;;;;;;;;5010886;28;20124;-94
2023/05/06 08:39:44;;;;;;;8.98;6.63;;;;;;;;;;5014127;28;20045;-89
2023/05/06 08:42:30;;;;;;;9.63;6.90;;;;;;;;;;4980651;28;20045;-89
2023/05/06 08:45:19;;;;;;;11.25;6.88;;;;;;;;;;4995313;28;20096;-90
2023/05/06 08:48:05;;;;;;;11.95;6.85;;;;;;;;;;4986065;28;20127;-91
2023/05/06 08:50:50;;;;;;;11.55;7.65;;;;;;;;;;5005818;28;20087;-91
2023/05/06 08:53:35;;;;;;;10.98;6.93;;;;;;;;;;5003797;28;20038;-90
2023/05/06 08:56:23;;;;;;;10.45;6.25;;;;;;;;;;4998517;28;20036;-92
2023/05/06 08:59:08;;;;;;;10.23;6.25;;;;;;;;;;4998626;28;20072;-90
2023/05/06 09:01:53;;;;;;;9.77;6.90;;;;;;;;;;4998880;28;20445;-91
2023/05/06 09:04:44;;;;;;;9.38;5.78;;;;;;;;;;4998861;28;20052;-91
2023/05/06 09:07:29;;;;;;;9.20;5.78;;;;;;;;;;5013835;28;20064;-90
2023/05/06 09:10:14;;;;;;;9.40;6.22;;;;;;;;;;4998466;28;20056;-90
2023/05/06 09:12:58;;;;;;;11.27;6.68;;;;;;;;;;5013516;28;20044;-93
2023/05/06 09:15:46;;;;;;;8.88;5.45;;;;;;;;;;5013772;28;20040;-90
2023/05/06 09:18:30;;;;;;;10.55;6.40;;;;;;;;;;4998712;28;20064;-89
2023/05/06 09:21:15;;;;;;;11.15;6.50;;;;;;;;;;4979287;28;20398;-91
2023/05/06 09:24:00;;;;;;;9.00;6.10;;;;;;;;;;4989382;28;20116;-93
2023/05/06 09:26:46;;;;;;;8.88;5.72;;;;;;;;;;5002093;28;20393;-90
2023/05/06 09:29:30;;;;;;;9.30;5.68;;;;;;;;;;5018161;28;20098;-91
2023/05/06 09:32:17;;;;;;;9.15;5.82;;;;;;;;;;5017558;28;20436;-90
2023/05/06 09:35:05;;;;;;;9.68;6.40;;;;;;;;;;5032400;28;20084;-92
2023/05/06 09:37:53;;;;;;;9.23;6.10;;;;;;;;;;5018063;28;20448;-90
2023/05/06 09:40:38;;;;;;;9.57;5.82;;;;;;;;;;5017977;28;20524;-92
2023/05/06 09:43:27;;;;;;;11.10;6.07;;;;;;;;;;5017299;28;20587;-91
2023/05/06 09:46:16;;;;;;;9.95;5.88;;;;;;;;;;5017355;28;20052;-91
2023/05/06 09:49:09;;;;;;;9.07;4.90;;;;;;;;;;5017596;28;20110;-91
2023/05/06 09:51:59;;;;;;;7.70;4.63;;;;;;;;;;5017579;28;20121;-92
2023/05/06 09:54:52;;;;;;;7.97;4.57;;;;;;;;;;5019085;28;20037;-91
2023/05/06 09:57:37;;;;;;;8.02;4.25;;;;;;;;;;5017580;28;20044;-93
2023/05/06 10:00:26;;;;;;;8.75;5.35;;;;;;;;;;5017122;28;20163;-91
2023/05/06 10:03:12;;;;;;;8.70;5.07;;;;;;;;;;5016863;28;20535;-91
2023/05/06 10:05:59;;;;;;;9.65;5.28;;;;;;;;;;5017308;28;20044;-92
2023/05/06 10:08:47;;;;;;;10.32;5.65;;;;;;;;;;5017501;28;20044;-93
2023/05/06 10:11:35;;;;;;;9.13;5.88;;;;;;;;;;5016824;28;20103;-92
2023/05/06 10:14:23;;;;;;;9.38;5.43;;;;;;;;;;5016766;28;20040;-91
2023/05/06 10:17:11;;;;;;;9.73;6.97;;;;;;;;;;5016886;28;20091;-93
2023/05/06 10:20:00;;;;;;;11.05;6.38;;;;;;;;;;5017131;28;20045;-91
2023/05/06 10:22:52;;;;;;;9.38;6.55;;;;;;;;;;4998100;28;20164;-92
2023/05/06 10:25:44;;;;;;;12.38;6.47;;;;;;;;;;4994393;28;20065;-93
2023/05/06 10:28:32;;;;;;;13.13;6.95;;;;;;;;;;5011580;28;20040;-93
2023/05/06 10:31:19;;;;;;;11.65;6.75;;;;;;;;;;5011759;28;20096;-91
2023/05/06 10:34:04;;;;;;;10.73;6.88;;;;;;;;;;4989745;28;20041;-91
2023/05/06 10:36:51;;;;;;;11.43;7.15;;;;;;;;;;4993918;28;20032;-92
2023/05/06 10:39:42;;;;;;;12.70;7.53;;;;;;;;;;5012075;28;20060;-92
2023/05/06 10:42:48;;;;;;;10.90;6.93;;;;;;;;;;4996999;28;20045;-92
2023/05/06 10:45:58;;;;;;;10.60;6.80;;;;;;;;;;4996432;28;21143;-92
2023/05/06 10:49:13;;;;;;;11.82;7.85;;;;;;;;;;4997126;28;20173;-92
2023/05/06 10:52:22;;;;;;;13.73;8.13;;;;;;;;;;4997021;28;20045;-92
2023/05/06 10:55:26;;;;;;;12.82;7.43;;;;;;;;;;4988002;28;20124;-94
2023/05/06 10:58:10;;;;;;;11.65;6.50;;;;;;;;;;4983986;28;20069;-92
2023/05/06 11:01:02;;;;;;;11.73;8.63;;;;;;;;;;4996965;28;20037;-92
2023/05/06 11:03:56;;;;;;;12.95;8.98;;;;;;;;;;5012255;28;20157;-93
2023/05/06 11:06:41;;;;;;;;;;;19.80;99.90;;;;;;4997291;28;20385;-93
2023/05/06 11:09:29;;;;;;;14.18;10.18;;;;;;;;;;5011111;28;19950;-93
2023/05/06 11:12:19;;;;;;;13.90;9.98;;;;;;;;;;4986792;28;20116;-92
2023/05/06 11:15:34;;;;;;;15.65;10.93;;;19.30;99.90;;;;;;5011415;28;20394;-94
2023/05/06 11:18:30;;;;;;;15.77;10.75;;;;;;;;;;4996442;28;20148;-92
2023/05/06 11:21:19;;;;;;;17.60;11.48;;;;;;;;;;4996523;28;20137;-93
2023/05/06 11:24:03;;;;;;;19.05;12.13;;;;;;;;;;4998926;28;20037;-92
2023/05/06 11:26:59;;;;;;;20.80;12.52;;;;;;;;;;5014707;28;20053;-92
2023/05/06 11:29:51;;;;;;;19.63;12.90;;;;;;;;;;5015551;28;20418;-92
2023/05/06 11:32:36;;;;;;;17.13;12.68;;;;;;;;;;5020100;28;20036;-91
2023/05/06 11:35:25;;;;;;;20.70;13.25;;;;;;;;;;5019622;28;20056;-93
2023/05/06 11:38:12;;;;;;;23.38;13.50;;;;;;;;;;5006910;28;20052;-92
2023/05/06 11:40:56;;;;;;;18.05;13.70;;;;;;;;;;5024090;28;20083;-92
2023/05/06 11:43:51;;;;;;;20.13;13.93;;;;;;;;;;5019719;28;20536;-92
2023/05/06 11:46:35;;;;;;;19.50;14.43;;;;;;;;;;5034374;28;20036;-94
2023/05/06 11:49:22;;;;;;;17.65;11.98;;;;;;;;;;5007562;28;20052;-92
2023/05/06 11:52:13;;;;;;;14.57;9.55;;;;;;;;;;5020393;28;20570;-92
2023/05/06 11:55:00;;;;;;;12.85;9.02;;;;;;;;;;5020041;28;20044;-91
2023/05/06 11:57:46;;;;;;;14.88;10.07;;;;;;;;;;5020415;28;20036;-93
2023/05/06 12:00:39;;;;;;;15.18;10.30;;;;;;;;;;5019525;28;20401;-92
2023/05/06 12:03:27;;;;;;;17.25;11.48;;;;;;;;;;5003613;28;20065;-89
2023/05/06 12:06:20;;;;;;;16.23;10.25;;;;;;;;;;5016485;28;20036;-96
2023/05/06 12:09:09;;;;;;;13.45;9.88;;;;;;;;;;5020092;28;20040;-91
2023/05/06 12:11:57;;;;;;;13.98;10.43;;;;;;;;;;5019742;28;20444;-91
2023/05/06 12:14:45;;;;;;;14.13;10.30;;;;;;;;;;5004895;28;20142;-91
2023/05/06 12:17:36;;;;;;;16.08;11.27;;;;;;;;;;5018592;28;20049;-90
2023/05/06 12:20:31;;;;;;;13.85;8.60;;;;;;;;;;5019307;28;20168;-91
2023/05/06 12:23:20;;;;;;;11.85;7.90;;;;;;;;;;5019413;28;20068;-92
2023/05/06 12:26:11;;;;;;;12.18;8.45;;;;;;;;;;5019325;28;20556;-93
2023/05/06 12:29:28;;;;;;;12.57;8.18;;;;;;;;;;5008885;28;20087;-93
2023/05/06 12:32:16;;;;;;;11.02;7.25;;;;;;;;;;4975467;28;20131;-93
2023/05/06 12:35:09;;;;;;;12.90;7.80;;;;;;;;;;4999752;28;20037;-93
2023/05/06 12:38:11;;;;;;;10.05;6.30;;;;;;;;;;5002260;28;20076;-92
2023/05/06 12:41:08;;;;;;;9.05;5.00;;;;;;;;;;5022649;28;20032;-91
2023/05/06 12:43:59;;;;;;;6.50;4.30;;;;;;;;;;5004771;28;20044;-92
2023/05/06 12:46:53;;;;;;;7.13;4.10;;;;;;;;;;5018423;28;20131;-89
2023/05/06 12:49:57;;;;;;;11.38;6.03;;;;;;;;;;5037435;28;20099;-90
2023/05/06 12:52:48;;;;;;;7.60;4.60;;;;;;;;;;5037711;28;20113;-89
2023/05/06 12:55:37;;;;;;;8.82;5.20;;;;;;;;;;5000800;28;20516;-91
2023/05/06 12:58:36;;;;;;;7.03;4.72;;;;;;;;;;5009326;28;20088;-90
2023/05/06 13:01:41;;;;;;;11.20;6.97;;;;;;;;;;5008465;28;20044;-90
2023/05/06 13:04:36;;;;;;;13.30;6.97;;;;;;;;;;5017440;28;20111;-92
2023/05/06 13:07:30;;;;;;;11.45;7.20;;;;;;;;;;5015831;28;20048;-91
2023/05/06 13:10:26;;;;;;;15.48;7.55;;;;;;;;;;5007621;28;20086;-93
2023/05/06 13:13:43;;;;;;;;;;;;;;;;;;;;;
2023/05/06 13:16:32;;;;;;;8.57;6.32;;;;;;;;;;5031434;28;20036;-92
2023/05/06 13:19:23;;;;;;;9.70;6.22;;;;;;;;;;5008495;28;20045;-93
2023/05/06 13:22:15;;;;;;;6.60;4.68;;;;;;;;;;5009541;28;20036;-94
2023/05/06 13:25:23;;;;;;;4.80;3.33;;;;;;;;;;5016011;28;20088;-93
2023/05/06 13:28:38;;;;;;;;;;;;;;;;;;;;;
2023/05/06 13:31:24;;;;;;;7.65;4.85;;;;;;;;;;5024021;28;20048;-90
2023/05/06 13:34:12;;;;;;;6.60;4.35;;;;;;;;;;5015251;28;20524;-94
2023/05/06 13:37:18;;;;;;;6.75;4.63;;;;;;;;;;5014570;28;20041;-92
2023/05/06 13:40:10;;;;;;;6.40;5.00;;;;;;;;;;5009776;28;20600;-93
2023/05/06 13:43:11;;;;;;;7.03;5.03;;;;;;;;;;5018355;28;20064;-91
2023/05/06 13:45:58;;;;;;;8.85;6.22;;;;;;;;;;5011996;28;20571;-91
2023/05/06 13:48:56;;;;;;;;;;;;;;;;;;;;;
2023/05/06 13:55:25;;;;;;;;;;;;;;;;;;;;;
2023/05/06 13:58:25;;;;;;;8.73;6.53;;;;;;;;;;5008827;28;20049;-92
2023/05/06 14:01:23;;;;;;;;;;;;;;;;;;;;;
2023/05/06 14:04:26;;;;;;;9.85;7.10;;;;;;;;;;5009666;28;20187;-91
2023/05/06 14:07:29;;;;;;;8.80;5.85;;;;;;;;;;5018735;28;20041;-91
2023/05/06 14:10:24;;;;;;;7.13;5.90;;;;;;;;;;5005352;28;20040;-91
2023/05/06 14:13:15;;;;;;;7.85;4.22;;;;;;;;;;5011148;28;20391;-92
2023/05/06 14:15:59;;;;;;;9.15;5.03;;;;;;;;;;5017097;28;20083;-90
2023/05/06 14:18:47;;;;;;;11.05;5.05;;;;;;;;;;5009132;28;20049;-90
2023/05/06 14:22:01;;;;;;;9.60;6.03;;;;;;;;;;5011088;28;20121;-90
2023/05/06 14:24:46;;;;;;;10.63;5.00;;;;;;;;;;5005909;28;20394;-90
2023/05/06 14:27:33;;;;;;;9.38;4.07;;;;;;;;;;5011607;28;20089;-90
2023/05/06 14:30:26;;;;;;;6.57;4.47;;;;;;;;;;5011883;28;20153;-89
2023/05/06 14:33:13;;;;;;;7.65;4.45;;;;;;;;;;5006615;28;20113;-90
2023/05/06 14:35:58;;;;;;;8.73;5.35;;;;;;;;;;4991546;28;20087;-90
2023/05/06 14:38:46;;;;;;;7.78;5.28;;;;;;;;;;5016372;28;20103;-92
2023/05/06 14:41:31;;;;;;;7.35;5.35;;;;;;;;;;5016934;28;20508;-89
2023/05/06 14:44:16;;;;;;;9.15;6.07;;;;;;;;;;5016742;28;20100;-89
2023/05/06 14:47:02;;;;;;;7.65;6.47;;;;;;;;;;5001456;28;20056;-88
2023/05/06 14:49:47;;;;;;;9.02;6.85;;;;;;;;;;5012369;28;20041;-89
2023/05/06 14:52:32;;;;;;;9.38;7.32;;;;;;;;;;5016743;28;20033;-89
2023/05/06 14:55:17;;;;;;;11.93;8.25;;;;;;;;;;5006274;28;20060;-89
2023/05/06 14:58:32;;;;;;;11.38;8.30;;;;;;;;;;5001730;28;20183;-90
2023/05/06 15:01:20;;;;;;;13.07;10.48;;;;;;;;;;5006623;28;20095;-89
2023/05/06 15:04:20;;;;;;;12.10;9.00;;;;;;;;;;5013659;28;20635;-89
2023/05/06 15:07:05;;;;;;;12.15;9.57;;;;;;;;;;5008502;28;20420;-89
2023/05/06 15:09:51;;;;;;;15.45;9.95;;;;;;;;;;5015812;28;20052;-89
2023/05/06 15:12:36;;;;;;;11.85;9.07;;;;;;;;;;5004418;28;20112;-91
2023/05/06 15:15:21;;;;;;;16.20;9.43;;;;;;;;;;4987951;28;20053;-91
2023/05/06 15:18:08;;;;;;;10.93;8.52;;;;;;;;;;4996450;28;20092;-91
2023/05/06 15:20:57;;;;;;;12.93;9.27;;;;;;;;;;5018528;28;21139;-91
2023/05/06 15:23:42;;;;;;;9.27;7.25;;;;;;;;;;5012810;28;20476;-90
2023/05/06 15:26:26;;;;;;;13.27;8.60;;;;;;;;;;5030082;28;20155;-86
2023/05/06 15:29:11;;;;;;;10.88;8.23;;;;;;;;;;4997454;28;20064;-89
2023/05/06 15:32:01;;;;;;;13.43;8.38;;;;;;;;;;5014554;28;20087;-88
2023/05/06 15:34:48;;;;;;;12.07;8.82;;;;;;;;;;5018342;28;20045;-88
2023/05/06 15:37:41;;;;;;;13.93;10.02;;;;;;;;;;5015922;28;20051;-89
2023/05/06 15:40:30;;;;;;;11.88;9.20;;;;;;;;;;5002363;28;20060;-88
2023/05/06 15:43:14;;;;;;;9.68;8.45;;;;;;;;;;4996860;28;20045;-88
2023/05/06 15:46:01;;;;;;;14.73;9.63;;;;;;;;;;5005425;28;20036;-90
2023/05/06 15:48:51;;;;;;;10.95;8.85;;;;;;;;;;5028335;28;20045;-90
2023/05/06 15:51:36;;;;;;;9.48;7.25;;;;;;;;;;5016492;28;20040;-89
2023/05/06 15:54:21;;;;;;;11.52;8.65;;;;;;;;;;5016134;28;20033;-89
2023/05/06 15:57:08;;;;;;;10.70;7.80;;;;;;;;;;4991120;28;20092;-89
2023/05/06 15:59:55;;;;;;;10.38;7.80;;;;;;;;;;4986225;28;20161;-92
2023/05/06 16:02:42;;;;;;;10.50;7.75;;;;;;;;;;5026029;28;20462;-89
2023/05/06 16:05:27;;;;;;;9.52;8.02;;;;;;;;;;5016144;28;20446;-91
2023/05/06 16:08:30;;;;;;;11.60;8.52;;;;;;;;;;5015959;28;20121;-91
2023/05/06 16:11:22;;;;;;;11.30;7.85;;;;;;;;;;5000529;28;20100;-91
2023/05/06 16:14:10;;;;;;;9.65;7.80;;;;;;;;;;5019917;28;20040;-91
2023/05/06 16:16:55;;;;;;;9.77;8.57;;;;;;;;;;5019720;28;20037;-91
2023/05/06 16:19:40;;;;;;;12.13;9.40;;;;;;;;;;5035121;28;20117;-90
2023/05/06 16:22:30;;;;;;;13.38;9.80;;;;;;;;;;4997721;28;20120;-89
2023/05/06 16:25:17;;;;;;;12.95;10.32;;;;;;;;;;5005906;28;20402;-91
2023/05/06 16:28:04;;;;;;;14.50;10.25;;;;;;;;;;5033888;28;20099;-90
2023/05/06 16:30:49;;;;;;;15.30;10.38;;;;;;;;;;5014878;28;20040;-91
2023/05/06 16:33:36;;;;;;;14.57;10.15;;;;;;;;;;5017557;28;20044;-91
2023/05/06 16:36:21;;;;;;;12.70;10.27;;;;;;;;;;5010186;28;20084;-91
2023/05/06 16:39:08;;;;;;;14.25;10.85;;;;;;;;;;5012217;28;20049;-90
2023/05/06 16:41:58;;;;;;;12.75;9.73;;;;;;;;;;5005200;28;20127;-91
2023/05/06 16:44:43;;;;;;;16.27;8.95;;;;;;;;;;5016898;28;20040;-91
2023/05/06 16:47:30;;;;;;;16.52;10.52;;;;;;;;;;5005295;28;20053;-95
2023/05/06 16:50:21;;;;;;;15.32;10.18;;;;;;;;;;5006893;28;20088;-93
2023/05/06 16:53:09;;;;;;;13.68;10.30;;;;;;;;;;4992809;28;20041;-92
2023/05/06 16:55:54;;;;;;;13.23;10.30;;;;;;;;;;5019042;28;20040;-94
2023/05/06 16:58:41;;;;;;;14.98;9.77;;;;;;;;;;5018658;28;20060;-93
2023/05/06 17:01:33;;;;;;;10.48;8.40;;;;;;;;;;5018305;28;20117;-92
2023/05/06 17:04:18;;;;;;;10.48;7.55;;;;;;;;;;5018157;28;20489;-94
2023/05/06 17:07:05;;;;;;;9.85;7.30;;;;;;;;;;5034207;28;20384;-92
2023/05/06 17:09:50;;;;;;;9.95;7.80;;;;;;;;;;5016687;28;20033;-94
2023/05/06 17:12:35;;;;;;;9.23;6.78;;;;;;;;;;5014955;28;20062;-93
2023/05/06 17:15:22;;;;;;;8.00;6.63;;;;;;;;;;5020790;28;20099;-93
2023/05/06 17:18:07;;;;;;;11.10;7.35;;;;;;;;;;5015377;28;20057;-92
2023/05/06 17:20:51;;;;;;;9.27;7.85;;;;;;;;;;4999014;28;20145;-93
2023/05/06 17:23:36;;;;;;;10.43;8.50;;;;;;;;;;5014003;28;20033;-95
2023/05/06 17:26:24;;;;;;;11.13;7.72;;;;;;;;;;5022311;28;20044;-93
2023/05/06 17:29:17;;;;;;;9.95;7.47;;;;;;;;;;5019256;28;20455;-94
2023/05/06 17:32:02;;;;;;;10.00;7.90;;;;;;;;;;5004611;28;20520;-93
2023/05/06 17:34:52;;;;;;;9.52;7.60;;;;;;;;;;5017425;28;20032;-94
2023/05/06 17:37:37;;;;;;;11.60;7.28;;;;;;;;;;5024737;28;20097;-92
2023/05/06 17:40:22;;;;;;;11.95;7.68;;;;;;;;;;5014147;28;20037;-91
2023/05/06 17:43:16;;;;;;;11.35;8.13;;;;;;;;;;5005334;28;20510;-91
2023/05/06 17:46:01;;;;;;;9.48;7.63;;;;;;;;;;5015221;28;20041;-90